createdAt,value
2017-06-26T00:05:56.876Z,0
2017-06-26T00:16:06.293Z,0
2017-06-26T00:26:15.700Z,0
2017-06-26T00:36:25.088Z,0
2017-06-26T00:46:34.442Z,0
2017-06-26T00:56:43.853Z,0
2017-06-26T01:06:53.376Z,0
2017-06-26T01:17:02.891Z,0
2017-06-26T01:27:12.386Z,0
2017-06-26T01:37:21.875Z,0
2017-06-26T01:47:31.282Z,0
2017-06-26T01:57:40.712Z,0
2017-06-26T02:07:50.150Z,0
2017-06-26T02:17:59.511Z,0
2017-06-26T02:28:09.006Z,0
2017-06-26T02:38:18.381Z,0
2017-06-26T02:48:27.784Z,0
2017-06-26T02:58:37.221Z,0
2017-06-26T03:08:46.713Z,0
2017-06-26T03:18:56.238Z,5
2017-06-26T03:29:05.780Z,5
2017-06-26T03:39:15.346Z,5
2017-06-26T03:49:24.879Z,15
2017-06-26T03:59:34.394Z,30
2017-06-26T04:09:43.902Z,65
2017-06-26T04:19:53.400Z,70
2017-06-26T04:30:02.980Z,90
2017-06-26T04:40:12.478Z,100
2017-06-26T04:50:21.890Z,235
2017-06-26T05:00:31.308Z,260
2017-06-26T05:10:40.649Z,350
2017-06-26T05:20:49.782Z,305
2017-06-26T05:30:58.940Z,255
2017-06-26T05:41:07.970Z,210
2017-06-26T05:51:17.044Z,235
2017-06-26T06:01:26.111Z,840
2017-06-26T06:11:34.909Z,665
2017-06-26T06:21:43.566Z,755
2017-06-26T06:31:52.153Z,530
2017-06-26T06:42:00.794Z,735
2017-06-26T06:52:09.407Z,395
2017-06-26T07:02:18.071Z,270
2017-06-26T07:12:26.801Z,395
2017-06-26T07:22:35.441Z,975
2017-06-26T07:32:43.877Z,1350
2017-06-26T07:42:51.967Z,1015
2017-06-26T07:53:00.132Z,1570
2017-06-26T08:03:08.211Z,865
2017-06-26T08:13:16.357Z,950
2017-06-26T08:23:24.645Z,2110
2017-06-26T08:33:32.785Z,2110
2017-06-26T08:43:40.621Z,1075
2017-06-26T08:53:48.517Z,1210
2017-06-26T09:03:56.219Z,3575
2017-06-26T09:14:04.286Z,670
2017-06-26T09:24:12.082Z,940
2017-06-26T09:34:19.892Z,810
2017-06-26T09:44:27.825Z,3180
2017-06-26T09:54:35.723Z,3445
2017-06-26T10:04:43.442Z,3700
2017-06-26T10:14:51.135Z,3445
2017-06-26T10:24:58.692Z,3915
2017-06-26T10:35:06.274Z,4045
2017-06-26T10:45:14.026Z,4110
2017-06-26T10:55:21.880Z,4085
2017-06-26T11:05:29.616Z,3965
2017-06-26T11:15:37.329Z,3845
2017-06-26T11:25:44.896Z,3605
2017-06-26T11:35:52.497Z,4245
2017-06-26T11:45:59.952Z,4025
2017-06-26T11:56:07.291Z,1000
2017-06-26T12:06:14.807Z,1135
2017-06-26T12:16:22.416Z,1100
2017-06-26T12:26:30.122Z,1110
2017-06-26T12:36:37.682Z,3540
2017-06-26T12:46:45.195Z,3430
2017-06-26T12:56:52.549Z,3465
2017-06-26T13:06:59.783Z,3515
2017-06-26T13:17:07.002Z,3380
2017-06-26T13:27:14.278Z,2720
2017-06-26T13:37:21.870Z,3205
2017-06-26T13:47:29.335Z,3015
2017-06-26T13:57:36.623Z,1920
2017-06-26T14:07:43.941Z,915
2017-06-26T14:17:51.486Z,2810
2017-06-26T14:27:58.839Z,1025
2017-06-26T14:38:06.126Z,2345
2017-06-26T14:48:13.348Z,1475
2017-06-26T14:58:20.749Z,980
2017-06-26T15:08:28.428Z,885
2017-06-26T15:18:36.097Z,2170
2017-06-26T15:28:43.457Z,1895
2017-06-26T15:38:50.657Z,1770
2017-06-26T15:48:57.704Z,1685
2017-06-26T15:59:04.767Z,1550
2017-06-26T16:09:11.772Z,1415
2017-06-26T16:19:18.878Z,1325
2017-06-26T16:29:25.905Z,1155
2017-06-26T16:39:32.960Z,1065
2017-06-26T16:49:40.055Z,745
2017-06-26T16:59:47.259Z,490
2017-06-26T17:09:54.545Z,465
2017-06-26T17:20:01.981Z,480
2017-06-26T17:30:09.407Z,445
2017-06-26T17:40:17.186Z,400
2017-06-26T17:50:25.119Z,435
2017-06-26T18:00:32.959Z,400
2017-06-26T18:10:40.809Z,360
2017-06-26T18:20:48.787Z,330
2017-06-26T18:30:56.857Z,280
2017-06-26T18:41:05.008Z,235
2017-06-26T18:51:13.277Z,215
2017-06-26T19:01:21.714Z,170
2017-06-26T19:11:30.272Z,130
2017-06-26T19:21:38.974Z,95
2017-06-26T19:31:47.738Z,60
2017-06-26T19:41:56.707Z,40
2017-06-26T19:52:05.795Z,15
2017-06-26T20:02:15.007Z,5
2017-06-26T20:12:24.359Z,0
2017-06-26T20:22:33.734Z,0
2017-06-26T20:32:43.354Z,0
2017-06-26T20:42:52.781Z,0
2017-06-26T20:53:02.378Z,0
2017-06-26T21:03:12.042Z,0
2017-06-26T21:13:21.722Z,0
2017-06-26T21:23:31.446Z,0
2017-06-26T21:33:41.207Z,0
2017-06-26T21:43:50.974Z,0
2017-06-26T21:54:00.753Z,0
2017-06-26T22:04:10.550Z,0
2017-06-26T22:14:20.394Z,0
2017-06-26T22:24:30.211Z,0
2017-06-26T22:34:40.160Z,0
2017-06-26T22:44:50.186Z,0
2017-06-26T22:54:59.976Z,0
2017-06-26T23:05:09.924Z,0
2017-06-26T23:15:19.891Z,0
2017-06-26T23:25:29.891Z,0
2017-06-26T23:35:39.903Z,0
2017-06-26T23:45:50.005Z,0
2017-06-26T23:56:00.169Z,0
